No particular awareness of the weather is required.    There are no Weather-warnings


Meteo18 Weather Cam more information Meteo18 Weather Cam


Thunder radar more information blitzortung!


Rain radar more information rain snow radar


Visit our other weather sites:

Template documentation
and downloads

And another site



Weather Underground History page Text

Daily Summary for February 28, 2017 Units:  Both    English   Metric
« Previous Day
Next Day »
Daily Weekly Monthly Yearly Custom
  High: Low: Average:
Temperature: 45.1 °F /  7.3 °C 39.6 °F /  4.2 °C 41.7 °F /  5.4 °C
Dew Point: 39.7 °F /  4.3 °C 35.2 °F /  1.8 °C 37.6 °F /  3.1 °C
Humidity: 91 % 79 % 85 %
Wind Speed: 27 mph /  43.4 km/h - 10.4 mph /  16.7 km/h
Wind Gust: 41 mph /  66.0 km/h - -
Wind:- - SW
Pressure: 29.7 in /  1007.3 hPa 29.4 in /  995.1 hPa -
Precipitation: 0.09 in /  2.3 mm    
Historical Graphs
 
 
Tabular Data for February 28, 2017
Time Temperature Dew Point Pressure Wind Wind Speed Wind Gust Humidity Rainfall Rate (Hourly)
00:02 42.4 °F /  5.8 °C 37.6 °F /  3.1 °C 29.6 in /  1000.9 hPa SSW 12 mph /  19.3 km/h 23 mph /  37.0 km/h 83 % 0 in /  0.0 mm
00:12 42.6 °F /  5.9 °C 37.2 °F /  2.9 °C 29.6 in /  1000.9 hPa SW 12 mph /  19.3 km/h 23 mph /  37.0 km/h 81 % 0 in /  0.0 mm
00:17 42.4 °F /  5.8 °C 37 °F /  2.8 °C 29.6 in /  1001.2 hPa SW 19 mph /  30.6 km/h 22 mph /  35.4 km/h 81 % 0 in /  0.0 mm
00:22 42.4 °F /  5.8 °C 37 °F /  2.8 °C 29.6 in /  1000.9 hPa South 10 mph /  16.1 km/h 22 mph /  35.4 km/h 81 % 0 in /  0.0 mm
00:27 42.3 °F /  5.7 °C 36.9 °F /  2.7 °C 29.6 in /  1000.9 hPa South 13 mph /  20.9 km/h 24 mph /  38.6 km/h 81 % 0 in /  0.0 mm
00:32 42.1 °F /  5.6 °C 36.7 °F /  2.6 °C 29.6 in /  1000.9 hPa West 23 mph /  37.0 km/h 24 mph /  38.6 km/h 81 % 0 in /  0.0 mm
00:37 42.1 °F /  5.6 °C 37 °F /  2.8 °C 29.6 in /  1000.9 hPa SW 12 mph /  19.3 km/h 26 mph /  41.8 km/h 82 % 0 in /  0.0 mm
00:42 41.7 °F /  5.4 °C 36.7 °F /  2.6 °C 29.6 in /  1000.9 hPa SW 13 mph /  20.9 km/h 26 mph /  41.8 km/h 82 % 0 in /  0.0 mm
00:47 41.7 °F /  5.4 °C 36.7 °F /  2.6 °C 29.6 in /  1000.6 hPa SW 6 mph /  9.7 km/h 24 mph /  38.6 km/h 82 % 0 in /  0.0 mm
00:52 41.5 °F /  5.3 °C 36.7 °F /  2.6 °C 29.6 in /  1000.6 hPa WSW 13 mph /  20.9 km/h 24 mph /  38.6 km/h 83 % 0 in /  0.0 mm
00:57 41.5 °F /  5.3 °C 36.7 °F /  2.6 °C 29.6 in /  1000.9 hPa SW 17 mph /  27.4 km/h 23 mph /  37.0 km/h 83 % 0 in /  0.0 mm
01:02 41.5 °F /  5.3 °C 36.5 °F /  2.5 °C 29.6 in /  1000.9 hPa SW 9 mph /  14.5 km/h 22 mph /  35.4 km/h 82 % 0 in /  0.0 mm
01:12 41.5 °F /  5.3 °C 36.7 °F /  2.6 °C 29.6 in /  1000.9 hPa SW 10 mph /  16.1 km/h 20 mph /  32.2 km/h 83 % 0 in /  0.0 mm
01:17 41.5 °F /  5.3 °C 36.7 °F /  2.6 °C 29.6 in /  1001.2 hPa SW 5 mph /  8.0 km/h 19 mph /  30.6 km/h 83 % 0 in /  0.0 mm
01:22 41.4 °F /  5.2 °C 36.5 °F /  2.5 °C 29.6 in /  1001.2 hPa WSW 7 mph /  11.3 km/h 24 mph /  38.6 km/h 83 % 0 in /  0.0 mm
01:32 41.4 °F /  5.2 °C 36.9 °F /  2.7 °C 29.6 in /  1001.2 hPa SW 8 mph /  12.9 km/h 24 mph /  38.6 km/h 84 % 0 in /  0.0 mm
01:37 41.2 °F /  5.1 °C 37 °F /  2.8 °C 29.6 in /  1001.2 hPa SW 11 mph /  17.7 km/h 17 mph /  27.4 km/h 85 % 0 in /  0.0 mm
01:42 41.2 °F /  5.1 °C 37.4 °F /  3.0 °C 29.6 in /  1000.9 hPa SW 7 mph /  11.3 km/h 17 mph /  27.4 km/h 86 % 0 in /  0.0 mm
01:47 41.2 °F /  5.1 °C 37.4 °F /  3.0 °C 29.6 in /  1000.9 hPa SW 12 mph /  19.3 km/h 18 mph /  29.0 km/h 86 % 0 in /  0.0 mm
01:52 41 °F /  5.0 °C 37.4 °F /  3.0 °C 29.6 in /  1001.2 hPa WSW 9 mph /  14.5 km/h 18 mph /  29.0 km/h 87 % 0 in /  0.0 mm
01:57 41 °F /  5.0 °C 37.4 °F /  3.0 °C 29.6 in /  1001.2 hPa SW 15 mph /  24.1 km/h 16 mph /  25.7 km/h 87 % 0 in /  0.0 mm
02:02 41.2 °F /  5.1 °C 37.9 °F /  3.3 °C 29.6 in /  1001.2 hPa SSW 8 mph /  12.9 km/h 16 mph /  25.7 km/h 88 % 0 in /  0.0 mm
02:07 41.2 °F /  5.1 °C 37.9 °F /  3.3 °C 29.6 in /  1001.2 hPa SW 8 mph /  12.9 km/h 17 mph /  27.4 km/h 88 % 0 in /  0.0 mm
02:12 41 °F /  5.0 °C 37.8 °F /  3.2 °C 29.6 in /  1001.2 hPa West 11 mph /  17.7 km/h 17 mph /  27.4 km/h 88 % 0 in /  0.0 mm
02:17 41.2 °F /  5.1 °C 37.9 °F /  3.3 °C 29.6 in /  1001.2 hPa SSW 6 mph /  9.7 km/h 16 mph /  25.7 km/h 88 % 0 in /  0.0 mm
02:22 41.2 °F /  5.1 °C 37.9 °F /  3.3 °C 29.6 in /  1001.2 hPa SW 14 mph /  22.5 km/h 15 mph /  24.1 km/h 88 % 0 in /  0.0 mm
02:27 41.2 °F /  5.1 °C 37.9 °F /  3.3 °C 29.6 in /  1001.2 hPa SW 15 mph /  24.1 km/h 15 mph /  24.1 km/h 88 % 0 in /  0.0 mm
02:32 41 °F /  5.0 °C 37.8 °F /  3.2 °C 29.6 in /  1001.2 hPa SW 5 mph /  8.0 km/h 15 mph /  24.1 km/h 88 % 0 in /  0.0 mm
02:37 40.8 °F /  4.9 °C 37.6 °F /  3.1 °C 29.6 in /  1000.9 hPa WSW 9 mph /  14.5 km/h 15 mph /  24.1 km/h 88 % 0 in /  0.0 mm
02:42 40.8 °F /  4.9 °C 37.6 °F /  3.1 °C 29.6 in /  1000.9 hPa WSW 8 mph /  12.9 km/h 15 mph /  24.1 km/h 88 % 0 in /  0.0 mm
02:47 40.8 °F /  4.9 °C 37.6 °F /  3.1 °C 29.6 in /  1000.9 hPa SW 9 mph /  14.5 km/h 15 mph /  24.1 km/h 88 % 0 in /  0.0 mm
02:52 40.6 °F /  4.8 °C 37.4 °F /  3.0 °C 29.6 in /  1000.9 hPa South 5 mph /  8.0 km/h 15 mph /  24.1 km/h 88 % 0 in /  0.0 mm
02:57 40.1 °F /  4.5 °C 37 °F /  2.8 °C 29.6 in /  1000.9 hPa SW 4 mph /  6.4 km/h 12 mph /  19.3 km/h 89 % 0 in /  0.0 mm
03:02 39.9 °F /  4.4 °C 37.2 °F /  2.9 °C 29.6 in /  1000.9 hPa SW 5 mph /  8.0 km/h 12 mph /  19.3 km/h 90 % 0 in /  0.0 mm
03:12 40.1 °F /  4.5 °C 37.8 °F /  3.2 °C 29.6 in /  1000.9 hPa SSW 5 mph /  8.0 km/h 11 mph /  17.7 km/h 91 % 0 in /  0.0 mm
03:17 40.3 °F /  4.6 °C 37.9 °F /  3.3 °C 29.6 in /  1000.9 hPa SSW 11 mph /  17.7 km/h 11 mph /  17.7 km/h 91 % 0 in /  0.0 mm
03:22 40.8 °F /  4.9 °C 37.8 °F /  3.2 °C 29.6 in /  1000.6 hPa SW 10 mph /  16.1 km/h 12 mph /  19.3 km/h 89 % 0 in /  0.0 mm
03:27 41.2 °F /  5.1 °C 37.9 °F /  3.3 °C 29.6 in /  1000.6 hPa WSW 13 mph /  20.9 km/h 16 mph /  25.7 km/h 88 % 0 in /  0.0 mm
03:37 41.5 °F /  5.3 °C 37.9 °F /  3.3 °C 29.6 in /  1000.6 hPa SW 8 mph /  12.9 km/h 19 mph /  30.6 km/h 87 % 0 in /  0.0 mm
03:42 41.5 °F /  5.3 °C 37.6 °F /  3.1 °C 29.6 in /  1000.6 hPa West 9 mph /  14.5 km/h 19 mph /  30.6 km/h 86 % 0 in /  0.0 mm
03:52 41.5 °F /  5.3 °C 37.6 °F /  3.1 °C 29.6 in /  1000.6 hPa SW 9 mph /  14.5 km/h 20 mph /  32.2 km/h 86 % 0 in /  0.0 mm
03:57 41.4 °F /  5.2 °C 37.6 °F /  3.1 °C 29.6 in /  1000.6 hPa SW 11 mph /  17.7 km/h 20 mph /  32.2 km/h 86 % 0 in /  0.0 mm
04:02 41.2 °F /  5.1 °C 37.4 °F /  3.0 °C 29.6 in /  1000.6 hPa SW 10 mph /  16.1 km/h 20 mph /  32.2 km/h 86 % 0 in /  0.0 mm
04:12 40.6 °F /  4.8 °C 37 °F /  2.8 °C 29.6 in /  1000.6 hPa SW 9 mph /  14.5 km/h 17 mph /  27.4 km/h 87 % 0 in /  0.0 mm
04:17 40.8 °F /  4.9 °C 37.2 °F /  2.9 °C 29.6 in /  1000.6 hPa SW 8 mph /  12.9 km/h 17 mph /  27.4 km/h 87 % 0 in /  0.0 mm
04:22 40.8 °F /  4.9 °C 37 °F /  2.8 °C 29.6 in /  1000.6 hPa WSW 9 mph /  14.5 km/h 15 mph /  24.1 km/h 86 % 0 in /  0.0 mm
04:32 41 °F /  5.0 °C 37.2 °F /  2.9 °C 29.6 in /  1000.6 hPa SW 10 mph /  16.1 km/h 15 mph /  24.1 km/h 86 % 0 in /  0.0 mm
04:42 40.8 °F /  4.9 °C 37.2 °F /  2.9 °C 29.6 in /  1000.6 hPa SW 8 mph /  12.9 km/h 14 mph /  22.5 km/h 87 % 0 in /  0.0 mm
04:47 40.8 °F /  4.9 °C 37.6 °F /  3.1 °C 29.6 in /  1000.6 hPa SSW 8 mph /  12.9 km/h 15 mph /  24.1 km/h 88 % 0 in /  0.0 mm
04:52 40.8 °F /  4.9 °C 37.6 °F /  3.1 °C 29.6 in /  1000.6 hPa SW 11 mph /  17.7 km/h 15 mph /  24.1 km/h 88 % 0 in /  0.0 mm
04:57 40.8 °F /  4.9 °C 37.6 °F /  3.1 °C 29.5 in /  1000.2 hPa SW 6 mph /  9.7 km/h 15 mph /  24.1 km/h 88 % 0 in /  0.0 mm
05:02 41.2 °F /  5.1 °C 37.9 °F /  3.3 °C 29.5 in /  1000.2 hPa SW 11 mph /  17.7 km/h 15 mph /  24.1 km/h 88 % 0 in /  0.0 mm
05:07 41 °F /  5.0 °C 37.8 °F /  3.2 °C 29.5 in /  1000.2 hPa SSW 5 mph /  8.0 km/h 15 mph /  24.1 km/h 88 % 0 in /  0.0 mm
05:12 40.6 °F /  4.8 °C 37.6 °F /  3.1 °C 29.5 in /  1000.2 hPa SSW 6 mph /  9.7 km/h 15 mph /  24.1 km/h 89 % 0 in /  0.0 mm
05:17 40.5 °F /  4.7 °C 37.4 °F /  3.0 °C 29.5 in /  999.9 hPa SW 10 mph /  16.1 km/h 15 mph /  24.1 km/h 89 % 0 in /  0.0 mm
05:22 40.1 °F /  4.5 °C 37.4 °F /  3.0 °C 29.5 in /  1000.2 hPa SW 9 mph /  14.5 km/h 12 mph /  19.3 km/h 90 % 0 in /  0.0 mm
05:27 39.9 °F /  4.4 °C 37.2 °F /  2.9 °C 29.5 in /  999.9 hPa SW 11 mph /  17.7 km/h 12 mph /  19.3 km/h 90 % 0 in /  0.0 mm
05:32 39.9 °F /  4.4 °C 37.2 °F /  2.9 °C 29.5 in /  999.9 hPa SW 7 mph /  11.3 km/h 13 mph /  20.9 km/h 90 % 0 in /  0.0 mm
05:42 40.1 °F /  4.5 °C 37.4 °F /  3.0 °C 29.5 in /  999.9 hPa SSW 9 mph /  14.5 km/h 15 mph /  24.1 km/h 90 % 0 in /  0.0 mm
05:47 40.3 °F /  4.6 °C 37.6 °F /  3.1 °C 29.5 in /  999.9 hPa SSW 10 mph /  16.1 km/h 15 mph /  24.1 km/h 90 % 0 in /  0.0 mm
05:52 40.5 °F /  4.7 °C 37.8 °F /  3.2 °C 29.5 in /  999.9 hPa SW 10 mph /  16.1 km/h 16 mph /  25.7 km/h 90 % 0 in /  0.0 mm
06:02 40.1 °F /  4.5 °C 37.4 °F /  3.0 °C 29.5 in /  999.5 hPa SW 11 mph /  17.7 km/h 16 mph /  25.7 km/h 90 % 0 in /  0.0 mm
06:07 39.9 °F /  4.4 °C 37.2 °F /  2.9 °C 29.5 in /  999.5 hPa SW 8 mph /  12.9 km/h 16 mph /  25.7 km/h 90 % 0 in /  0.0 mm
06:12 39.9 °F /  4.4 °C 37.6 °F /  3.1 °C 29.5 in /  999.2 hPa SW 14 mph /  22.5 km/h 16 mph /  25.7 km/h 91 % 0 in /  0.0 mm
06:17 39.9 °F /  4.4 °C 37.6 °F /  3.1 °C 29.5 in /  998.9 hPa SW 10 mph /  16.1 km/h 16 mph /  25.7 km/h 91 % 0 in /  0.0 mm
06:22 39.9 °F /  4.4 °C 37.6 °F /  3.1 °C 29.5 in /  999.2 hPa SSW 5 mph /  8.0 km/h 15 mph /  24.1 km/h 91 % 0 in /  0.0 mm
06:32 39.7 °F /  4.3 °C 37.4 °F /  3.0 °C 29.5 in /  999.2 hPa SSW 4 mph /  6.4 km/h 15 mph /  24.1 km/h 91 % 0 in /  0.0 mm
06:37 39.7 °F /  4.3 °C 37.4 °F /  3.0 °C 29.5 in /  999.2 hPa SSW 6 mph /  9.7 km/h 13 mph /  20.9 km/h 91 % 0 in /  0.0 mm
06:42 39.7 °F /  4.3 °C 37.4 °F /  3.0 °C 29.5 in /  999.2 hPa SW 10 mph /  16.1 km/h 13 mph /  20.9 km/h 91 % 0 in /  0.0 mm
06:47 39.9 °F /  4.4 °C 37.6 °F /  3.1 °C 29.5 in /  998.9 hPa SW 7 mph /  11.3 km/h 13 mph /  20.9 km/h 91 % 0 in /  0.0 mm
06:52 39.7 °F /  4.3 °C 37.4 °F /  3.0 °C 29.5 in /  998.9 hPa SSW 8 mph /  12.9 km/h 12 mph /  19.3 km/h 91 % 0 in /  0.0 mm
07:02 39.9 °F /  4.4 °C 37.2 °F /  2.9 °C 29.5 in /  998.5 hPa SSW 9 mph /  14.5 km/h 12 mph /  19.3 km/h 90 % 0 in /  0.0 mm
07:07 39.7 °F /  4.3 °C 37 °F /  2.8 °C 29.5 in /  998.5 hPa SSW 6 mph /  9.7 km/h 12 mph /  19.3 km/h 90 % 0 in /  0.0 mm
07:12 39.7 °F /  4.3 °C 37 °F /  2.8 °C 29.5 in /  998.5 hPa SSE 5 mph /  8.0 km/h 13 mph /  20.9 km/h 90 % 0 in /  0.0 mm
07:17 39.6 °F /  4.2 °C 36.9 °F /  2.7 °C 29.5 in /  998.2 hPa South 6 mph /  9.7 km/h 13 mph /  20.9 km/h 90 % 0 in /  0.0 mm
07:22 39.6 °F /  4.2 °C 36.9 °F /  2.7 °C 29.5 in /  998.2 hPa SSW 7 mph /  11.3 km/h 11 mph /  17.7 km/h 90 % 0 in /  0.0 mm
07:32 39.6 °F /  4.2 °C 36.9 °F /  2.7 °C 29.5 in /  998.2 hPa SSW 7 mph /  11.3 km/h 14 mph /  22.5 km/h 90 % 0 in /  0.0 mm
07:42 39.7 °F /  4.3 °C 36.7 °F /  2.6 °C 29.5 in /  997.9 hPa SSW 9 mph /  14.5 km/h 14 mph /  22.5 km/h 89 % 0 in /  0.0 mm
07:47 39.9 °F /  4.4 °C 36.9 °F /  2.7 °C 29.5 in /  997.9 hPa SSW 12 mph /  19.3 km/h 14 mph /  22.5 km/h 89 % 0 in /  0.0 mm
07:52 40.3 °F /  4.6 °C 37.2 °F /  2.9 °C 29.5 in /  997.9 hPa SSW 8 mph /  12.9 km/h 15 mph /  24.1 km/h 89 % 0 in /  0.0 mm
07:57 40.5 °F /  4.7 °C 37.2 °F /  2.9 °C 29.5 in /  997.5 hPa SW 6 mph /  9.7 km/h 15 mph /  24.1 km/h 88 % 0 in /  0.0 mm
08:02 40.6 °F /  4.8 °C 37.4 °F /  3.0 °C 29.5 in /  997.5 hPa SSW 8 mph /  12.9 km/h 15 mph /  24.1 km/h 88 % 0 in /  0.0 mm
08:07 40.8 °F /  4.9 °C 37.2 °F /  2.9 °C 29.5 in /  997.5 hPa South 8 mph /  12.9 km/h 15 mph /  24.1 km/h 87 % 0 in /  0.0 mm
08:12 40.8 °F /  4.9 °C 37.2 °F /  2.9 °C 29.5 in /  997.2 hPa South 7 mph /  11.3 km/h 15 mph /  24.1 km/h 87 % 0 in /  0.0 mm
08:22 41.2 °F /  5.1 °C 37.4 °F /  3.0 °C 29.5 in /  997.2 hPa SSW 9 mph /  14.5 km/h 14 mph /  22.5 km/h 86 % 0 in /  0.0 mm
08:32 41.4 °F /  5.2 °C 37.6 °F /  3.1 °C 29.4 in /  996.8 hPa SSW 8 mph /  12.9 km/h 20 mph /  32.2 km/h 86 % 0 in /  0.0 mm
08:37 41.4 °F /  5.2 °C 37.6 °F /  3.1 °C 29.4 in /  996.8 hPa SSE 8 mph /  12.9 km/h 20 mph /  32.2 km/h 86 % 0 in /  0.0 mm
08:42 41.4 °F /  5.2 °C 37.8 °F /  3.2 °C 29.4 in /  996.8 hPa SSE 10 mph /  16.1 km/h 17 mph /  27.4 km/h 87 % 0 in /  0.0 mm
08:47 41.4 °F /  5.2 °C 37.8 °F /  3.2 °C 29.4 in /  996.5 hPa SSW 2 mph /  3.2 km/h 17 mph /  27.4 km/h 87 % 0 in /  0.0 mm
08:52 41.2 °F /  5.1 °C 38.1 °F /  3.4 °C 29.4 in /  996.2 hPa SSE 2 mph /  3.2 km/h 15 mph /  24.1 km/h 89 % 0.01 in /  0.3 mm
09:02 40.6 °F /  4.8 °C 37.9 °F /  3.3 °C 29.4 in /  996.2 hPa SSE 3 mph /  4.8 km/h 11 mph /  17.7 km/h 90 % 0.02 in /  0.5 mm
09:12 40.6 °F /  4.8 °C 38.3 °F /  3.5 °C 29.4 in /  995.5 hPa SE 5 mph /  8.0 km/h 11 mph /  17.7 km/h 91 % 0.02 in /  0.5 mm
09:22 41.2 °F /  5.1 °C 38.5 °F /  3.6 °C 29.4 in /  995.5 hPa SSE 5 mph /  8.0 km/h 14 mph /  22.5 km/h 90 % 0.02 in /  0.5 mm
09:27 41.4 °F /  5.2 °C 38.7 °F /  3.7 °C 29.4 in /  995.5 hPa SSE 6 mph /  9.7 km/h 14 mph /  22.5 km/h 90 % 0.02 in /  0.5 mm
09:32 41.4 °F /  5.2 °C 38.7 °F /  3.7 °C 29.4 in /  995.5 hPa SSE 5 mph /  8.0 km/h 18 mph /  29.0 km/h 90 % 0.02 in /  0.5 mm
09:37 41.5 °F /  5.3 °C 38.8 °F /  3.8 °C 29.4 in /  995.5 hPa SSW 10 mph /  16.1 km/h 18 mph /  29.0 km/h 90 % 0.02 in /  0.5 mm
09:42 41.5 °F /  5.3 °C 38.5 °F /  3.6 °C 29.4 in /  995.5 hPa SSW 15 mph /  24.1 km/h 17 mph /  27.4 km/h 89 % 0.02 in /  0.5 mm
09:47 41.7 °F /  5.4 °C 38.7 °F /  3.7 °C 29.4 in /  995.5 hPa South 13 mph /  20.9 km/h 17 mph /  27.4 km/h 89 % 0.02 in /  0.5 mm
09:52 41.7 °F /  5.4 °C 38.7 °F /  3.7 °C 29.4 in /  995.1 hPa SW 17 mph /  27.4 km/h 17 mph /  27.4 km/h 89 % 0.02 in /  0.5 mm
09:57 41.7 °F /  5.4 °C 38.7 °F /  3.7 °C 29.4 in /  995.1 hPa South 9 mph /  14.5 km/h 17 mph /  27.4 km/h 89 % 0.02 in /  0.5 mm
10:02 41.9 °F /  5.5 °C 38.8 °F /  3.8 °C 29.4 in /  995.5 hPa SSW 15 mph /  24.1 km/h 23 mph /  37.0 km/h 89 % 0.02 in /  0.5 mm
10:12 42.1 °F /  5.6 °C 39.4 °F /  4.1 °C 29.4 in /  995.5 hPa SW 15 mph /  24.1 km/h 23 mph /  37.0 km/h 90 % 0.02 in /  0.5 mm
10:17 42.1 °F /  5.6 °C 39.6 °F /  4.2 °C 29.4 in /  995.5 hPa SSW 22 mph /  35.4 km/h 23 mph /  37.0 km/h 91 % 0.02 in /  0.5 mm
10:22 42.1 °F /  5.6 °C 39.6 °F /  4.2 °C 29.4 in /  995.8 hPa SW 15 mph /  24.1 km/h 29 mph /  46.7 km/h 91 % 0.02 in /  0.5 mm
10:32 42.1 °F /  5.6 °C 39 °F /  3.9 °C 29.4 in /  995.5 hPa SW 10 mph /  16.1 km/h 30 mph /  48.3 km/h 89 % 0.03 in /  0.8 mm
10:42 41.9 °F /  5.5 °C 38.8 °F /  3.8 °C 29.4 in /  995.8 hPa WSW 5 mph /  8.0 km/h 30 mph /  48.3 km/h 89 % 0.03 in /  0.8 mm
10:52 41.5 °F /  5.3 °C 38.5 °F /  3.6 °C 29.4 in /  995.5 hPa SSW 14 mph /  22.5 km/h 28 mph /  45.1 km/h 89 % 0.03 in /  0.8 mm
10:57 41.7 °F /  5.4 °C 38.7 °F /  3.7 °C 29.4 in /  995.5 hPa SW 14 mph /  22.5 km/h 28 mph /  45.1 km/h 89 % 0.03 in /  0.8 mm
11:02 41.9 °F /  5.5 °C 38.8 °F /  3.8 °C 29.4 in /  995.1 hPa WSW 11 mph /  17.7 km/h 23 mph /  37.0 km/h 89 % 0.03 in /  0.8 mm
11:12 42.1 °F /  5.6 °C 39 °F /  3.9 °C 29.4 in /  995.1 hPa SW 15 mph /  24.1 km/h 26 mph /  41.8 km/h 89 % 0.02 in /  0.5 mm
11:17 42.3 °F /  5.7 °C 39.2 °F /  4.0 °C 29.4 in /  995.1 hPa SW 19 mph /  30.6 km/h 26 mph /  41.8 km/h 89 % 0.02 in /  0.5 mm
11:22 42.6 °F /  5.9 °C 39.4 °F /  4.1 °C 29.4 in /  995.1 hPa SW 14 mph /  22.5 km/h 23 mph /  37.0 km/h 88 % 0.02 in /  0.5 mm
11:32 42.8 °F /  6.0 °C 38.8 °F /  3.8 °C 29.4 in /  995.5 hPa SW 13 mph /  20.9 km/h 29 mph /  46.7 km/h 86 % 0.01 in /  0.3 mm
11:37 42.8 °F /  6.0 °C 38.8 °F /  3.8 °C 29.4 in /  995.5 hPa SW 5 mph /  8.0 km/h 29 mph /  46.7 km/h 86 % 0.01 in /  0.3 mm
11:42 42.8 °F /  6.0 °C 38.7 °F /  3.7 °C 29.4 in /  995.5 hPa WSW 14 mph /  22.5 km/h 27 mph /  43.4 km/h 85 % 0.01 in /  0.3 mm
11:47 42.6 °F /  5.9 °C 38.5 °F /  3.6 °C 29.4 in /  995.5 hPa SW 17 mph /  27.4 km/h 27 mph /  43.4 km/h 85 % 0.01 in /  0.3 mm
11:52 42.6 °F /  5.9 °C 38.7 °F /  3.7 °C 29.4 in /  995.5 hPa SW 14 mph /  22.5 km/h 28 mph /  45.1 km/h 86 % 0 in /  0.0 mm
11:57 42.8 °F /  6.0 °C 38.8 °F /  3.8 °C 29.4 in /  995.5 hPa WSW 5 mph /  8.0 km/h 28 mph /  45.1 km/h 86 % 0 in /  0.0 mm
12:02 42.6 °F /  5.9 °C 38.5 °F /  3.6 °C 29.4 in /  995.8 hPa West 7 mph /  11.3 km/h 28 mph /  45.1 km/h 85 % 0 in /  0.0 mm
12:12 42.1 °F /  5.6 °C 38.1 °F /  3.4 °C 29.4 in /  996.2 hPa WSW 19 mph /  30.6 km/h 31 mph /  49.9 km/h 86 % 0 in /  0.0 mm
12:17 41.7 °F /  5.4 °C 37.8 °F /  3.2 °C 29.4 in /  995.8 hPa WSW 19 mph /  30.6 km/h 31 mph /  49.9 km/h 86 % 0 in /  0.0 mm
12:22 41.7 °F /  5.4 °C 38.1 °F /  3.4 °C 29.4 in /  996.2 hPa WSW 13 mph /  20.9 km/h 27 mph /  43.4 km/h 87 % 0 in /  0.0 mm
12:32 41.7 °F /  5.4 °C 38.1 °F /  3.4 °C 29.4 in /  996.2 hPa SW 12 mph /  19.3 km/h 27 mph /  43.4 km/h 87 % 0 in /  0.0 mm
12:42 41.7 °F /  5.4 °C 37.8 °F /  3.2 °C 29.4 in /  996.2 hPa SW 19 mph /  30.6 km/h 25 mph /  40.2 km/h 86 % 0.01 in /  0.3 mm
12:47 41.4 °F /  5.2 °C 37.8 °F /  3.2 °C 29.4 in /  996.2 hPa WSW 22 mph /  35.4 km/h 25 mph /  40.2 km/h 87 % 0.01 in /  0.3 mm
12:52 41.4 °F /  5.2 °C 38.1 °F /  3.4 °C 29.4 in /  996.2 hPa WSW 16 mph /  25.7 km/h 28 mph /  45.1 km/h 88 % 0.01 in /  0.3 mm
13:02 41.5 °F /  5.3 °C 38.5 °F /  3.6 °C 29.4 in /  996.2 hPa SW 15 mph /  24.1 km/h 28 mph /  45.1 km/h 89 % 0.01 in /  0.3 mm
13:12 42.4 °F /  5.8 °C 38.8 °F /  3.8 °C 29.4 in /  996.2 hPa SW 11 mph /  17.7 km/h 22 mph /  35.4 km/h 87 % 0.01 in /  0.3 mm
13:22 43.3 °F /  6.3 °C 39.7 °F /  4.3 °C 29.4 in /  996.2 hPa SSW 8 mph /  12.9 km/h 24 mph /  38.6 km/h 87 % 0.01 in /  0.3 mm
13:32 43.5 °F /  6.4 °C 39.4 °F /  4.1 °C 29.4 in /  995.8 hPa SW 17 mph /  27.4 km/h 24 mph /  38.6 km/h 85 % 0 in /  0.0 mm
13:42 43.7 °F /  6.5 °C 38.8 °F /  3.8 °C 29.4 in /  996.2 hPa WSW 14 mph /  22.5 km/h 28 mph /  45.1 km/h 83 % 0 in /  0.0 mm
13:52 43.9 °F /  6.6 °C 39 °F /  3.9 °C 29.4 in /  996.2 hPa SW 19 mph /  30.6 km/h 27 mph /  43.4 km/h 83 % 0 in /  0.0 mm
14:02 44.1 °F /  6.7 °C 39.2 °F /  4.0 °C 29.4 in /  996.2 hPa SW 16 mph /  25.7 km/h 30 mph /  48.3 km/h 83 % 0 in /  0.0 mm
14:12 44.6 °F /  7.0 °C 39.2 °F /  4.0 °C 29.4 in /  995.8 hPa SW 17 mph /  27.4 km/h 30 mph /  48.3 km/h 81 % 0 in /  0.0 mm
14:17 45 °F /  7.2 °C 39.2 °F /  4.0 °C 29.4 in /  995.8 hPa SW 12 mph /  19.3 km/h 24 mph /  38.6 km/h 80 % 0 in /  0.0 mm
14:22 45 °F /  7.2 °C 39.2 °F /  4.0 °C 29.4 in /  995.8 hPa SW 14 mph /  22.5 km/h 34 mph /  54.7 km/h 80 % 0 in /  0.0 mm
14:32 44.8 °F /  7.1 °C 39.4 °F /  4.1 °C 29.4 in /  995.8 hPa WSW 10 mph /  16.1 km/h 34 mph /  54.7 km/h 81 % 0 in /  0.0 mm
14:37 44.6 °F /  7.0 °C 39.4 °F /  4.1 °C 29.4 in /  995.8 hPa WSW 27 mph /  43.4 km/h 32 mph /  51.5 km/h 82 % 0 in /  0.0 mm
14:42 44.6 °F /  7.0 °C 39.2 °F /  4.0 °C 29.4 in /  995.8 hPa WSW 20 mph /  32.2 km/h 32 mph /  51.5 km/h 81 % 0 in /  0.0 mm
14:47 45.1 °F /  7.3 °C 39.7 °F /  4.3 °C 29.4 in /  995.8 hPa SW 10 mph /  16.1 km/h 33 mph /  53.1 km/h 81 % 0 in /  0.0 mm
14:52 45.1 °F /  7.3 °C 39 °F /  3.9 °C 29.4 in /  995.8 hPa WSW 11 mph /  17.7 km/h 33 mph /  53.1 km/h 79 % 0 in /  0.0 mm
15:02 43.9 °F /  6.6 °C 39.4 °F /  4.1 °C 29.4 in /  996.5 hPa WSW 23 mph /  37.0 km/h 41 mph /  66.0 km/h 84 % 0.01 in /  0.3 mm
15:12 42.8 °F /  6.0 °C 38.3 °F /  3.5 °C 29.5 in /  997.2 hPa West 17 mph /  27.4 km/h 41 mph /  66.0 km/h 84 % 0.01 in /  0.3 mm
15:17 42.4 °F /  5.8 °C 37.9 °F /  3.3 °C 29.5 in /  997.5 hPa WNW 25 mph /  40.2 km/h 41 mph /  66.0 km/h 84 % 0.01 in /  0.3 mm
15:22 42.3 °F /  5.7 °C 37.8 °F /  3.2 °C 29.5 in /  997.9 hPa WNW 22 mph /  35.4 km/h 32 mph /  51.5 km/h 84 % 0.01 in /  0.3 mm
15:32 42.1 °F /  5.6 °C 37.9 °F /  3.3 °C 29.5 in /  998.2 hPa West 16 mph /  25.7 km/h 32 mph /  51.5 km/h 85 % 0.01 in /  0.3 mm
15:42 42.6 °F /  5.9 °C 37.8 °F /  3.2 °C 29.5 in /  998.2 hPa WNW 19 mph /  30.6 km/h 30 mph /  48.3 km/h 83 % 0.01 in /  0.3 mm
15:52 43 °F /  6.1 °C 37.9 °F /  3.3 °C 29.5 in /  998.5 hPa WNW 23 mph /  37.0 km/h 30 mph /  48.3 km/h 82 % 0.01 in /  0.3 mm
15:57 43.3 °F /  6.3 °C 38.8 °F /  3.8 °C 29.5 in /  998.9 hPa WNW 19 mph /  30.6 km/h 32 mph /  51.5 km/h 84 % 0 in /  0.0 mm
16:02 43.5 °F /  6.4 °C 38.7 °F /  3.7 °C 29.5 in /  999.2 hPa WNW 10 mph /  16.1 km/h 32 mph /  51.5 km/h 83 % 0 in /  0.0 mm
16:12 43.7 °F /  6.5 °C 38.3 °F /  3.5 °C 29.5 in /  999.5 hPa West 7 mph /  11.3 km/h 32 mph /  51.5 km/h 81 % 0 in /  0.0 mm
16:17 43.9 °F /  6.6 °C 38.1 °F /  3.4 °C 29.5 in /  999.5 hPa West 7 mph /  11.3 km/h 31 mph /  49.9 km/h 80 % 0 in /  0.0 mm
16:22 43.5 °F /  6.4 °C 37.8 °F /  3.2 °C 29.5 in /  999.5 hPa WNW 15 mph /  24.1 km/h 31 mph /  49.9 km/h 80 % 0 in /  0.0 mm
16:32 43.7 °F /  6.5 °C 37.6 °F /  3.1 °C 29.5 in /  999.9 hPa WNW 9 mph /  14.5 km/h 24 mph /  38.6 km/h 79 % 0 in /  0.0 mm
16:42 43.3 °F /  6.3 °C 37.6 °F /  3.1 °C 29.5 in /  1000.2 hPa WSW 10 mph /  16.1 km/h 30 mph /  48.3 km/h 80 % 0 in /  0.0 mm
16:47 43.3 °F /  6.3 °C 37.6 °F /  3.1 °C 29.5 in /  1000.2 hPa West 18 mph /  29.0 km/h 30 mph /  48.3 km/h 80 % 0 in /  0.0 mm
16:52 43.3 °F /  6.3 °C 37.6 °F /  3.1 °C 29.6 in /  1000.6 hPa West 19 mph /  30.6 km/h 30 mph /  48.3 km/h 80 % 0 in /  0.0 mm
16:57 43.2 °F /  6.2 °C 37.8 °F /  3.2 °C 29.6 in /  1000.6 hPa West 15 mph /  24.1 km/h 27 mph /  43.4 km/h 81 % 0 in /  0.0 mm
17:02 43 °F /  6.1 °C 38.1 °F /  3.4 °C 29.6 in /  1000.9 hPa West 18 mph /  29.0 km/h 27 mph /  43.4 km/h 83 % 0 in /  0.0 mm
17:12 42.8 °F /  6.0 °C 37.8 °F /  3.2 °C 29.6 in /  1001.2 hPa NW 20 mph /  32.2 km/h 23 mph /  37.0 km/h 82 % 0 in /  0.0 mm
17:17 43.2 °F /  6.2 °C 38.1 °F /  3.4 °C 29.6 in /  1001.2 hPa West 17 mph /  27.4 km/h 31 mph /  49.9 km/h 82 % 0 in /  0.0 mm
17:22 43.3 °F /  6.3 °C 37.9 °F /  3.3 °C 29.6 in /  1001.6 hPa WNW 13 mph /  20.9 km/h 31 mph /  49.9 km/h 81 % 0 in /  0.0 mm
17:32 43.3 °F /  6.3 °C 38.5 °F /  3.6 °C 29.6 in /  1001.9 hPa West 9 mph /  14.5 km/h 22 mph /  35.4 km/h 83 % 0 in /  0.0 mm
17:42 43 °F /  6.1 °C 38.5 °F /  3.6 °C 29.6 in /  1002.3 hPa West 9 mph /  14.5 km/h 17 mph /  27.4 km/h 84 % 0 in /  0.0 mm
17:47 42.8 °F /  6.0 °C 38.3 °F /  3.5 °C 29.6 in /  1002.6 hPa West 7 mph /  11.3 km/h 15 mph /  24.1 km/h 84 % 0 in /  0.0 mm
17:52 43 °F /  6.1 °C 38.5 °F /  3.6 °C 29.6 in /  1002.6 hPa WNW 9 mph /  14.5 km/h 15 mph /  24.1 km/h 84 % 0 in /  0.0 mm
18:02 43.3 °F /  6.3 °C 39.2 °F /  4.0 °C 29.6 in /  1002.9 hPa WNW 3 mph /  4.8 km/h 17 mph /  27.4 km/h 85 % 0 in /  0.0 mm
18:12 43.3 °F /  6.3 °C 38.5 °F /  3.6 °C 29.6 in /  1003.3 hPa WSW 4 mph /  6.4 km/h 17 mph /  27.4 km/h 83 % 0 in /  0.0 mm
18:17 43.3 °F /  6.3 °C 38.5 °F /  3.6 °C 29.6 in /  1003.6 hPa West 8 mph /  12.9 km/h 11 mph /  17.7 km/h 83 % 0 in /  0.0 mm
18:22 43 °F /  6.1 °C 38.5 °F /  3.6 °C 29.6 in /  1003.6 hPa WSW 4 mph /  6.4 km/h 11 mph /  17.7 km/h 84 % 0 in /  0.0 mm
18:32 42.6 °F /  5.9 °C 38.1 °F /  3.4 °C 29.6 in /  1003.6 hPa WSW 7 mph /  11.3 km/h 11 mph /  17.7 km/h 84 % 0 in /  0.0 mm
18:42 42.3 °F /  5.7 °C 38.1 °F /  3.4 °C 29.6 in /  1003.9 hPa WSW 3 mph /  4.8 km/h 13 mph /  20.9 km/h 85 % 0 in /  0.0 mm
18:47 42.3 °F /  5.7 °C 38.1 °F /  3.4 °C 29.7 in /  1004.3 hPa WSW 5 mph /  8.0 km/h 10 mph /  16.1 km/h 85 % 0 in /  0.0 mm
18:57 42.1 °F /  5.6 °C 37.9 °F /  3.3 °C 29.7 in /  1004.6 hPa SW 2 mph /  3.2 km/h 9 mph /  14.5 km/h 85 % 0 in /  0.0 mm
19:02 42.1 °F /  5.6 °C 37.2 °F /  2.9 °C 29.7 in /  1004.6 hPa SW 3 mph /  4.8 km/h 9 mph /  14.5 km/h 83 % 0 in /  0.0 mm
19:12 42.3 °F /  5.7 °C 36.9 °F /  2.7 °C 29.7 in /  1005.0 hPa SSW 4 mph /  6.4 km/h 12 mph /  19.3 km/h 81 % 0 in /  0.0 mm
19:17 42.3 °F /  5.7 °C 36.9 °F /  2.7 °C 29.7 in /  1005.0 hPa WSW 2 mph /  3.2 km/h 12 mph /  19.3 km/h 81 % 0 in /  0.0 mm
19:22 42.1 °F /  5.6 °C 36.7 °F /  2.6 °C 29.7 in /  1005.0 hPa West 12 mph /  19.3 km/h 12 mph /  19.3 km/h 81 % 0 in /  0.0 mm
19:27 42.3 °F /  5.7 °C 36.5 °F /  2.5 °C 29.7 in /  1005.3 hPa SW 5 mph /  8.0 km/h 11 mph /  17.7 km/h 80 % 0 in /  0.0 mm
19:32 42.1 °F /  5.6 °C 36.3 °F /  2.4 °C 29.7 in /  1005.3 hPa SW 6 mph /  9.7 km/h 12 mph /  19.3 km/h 80 % 0 in /  0.0 mm
19:37 41.7 °F /  5.4 °C 36.3 °F /  2.4 °C 29.7 in /  1005.3 hPa SW 6 mph /  9.7 km/h 12 mph /  19.3 km/h 81 % 0 in /  0.0 mm
19:42 41.7 °F /  5.4 °C 36 °F /  2.2 °C 29.7 in /  1005.6 hPa SW 7 mph /  11.3 km/h 12 mph /  19.3 km/h 80 % 0 in /  0.0 mm
19:52 41.4 °F /  5.2 °C 36 °F /  2.2 °C 29.7 in /  1005.6 hPa SW 5 mph /  8.0 km/h 11 mph /  17.7 km/h 81 % 0 in /  0.0 mm
19:57 41.2 °F /  5.1 °C 35.8 °F /  2.1 °C 29.7 in /  1005.6 hPa SW 6 mph /  9.7 km/h 11 mph /  17.7 km/h 81 % 0 in /  0.0 mm
20:02 41.2 °F /  5.1 °C 35.8 °F /  2.1 °C 29.7 in /  1005.6 hPa SW 7 mph /  11.3 km/h 11 mph /  17.7 km/h 81 % 0 in /  0.0 mm
20:12 40.6 °F /  4.8 °C 36 °F /  2.2 °C 29.7 in /  1005.6 hPa SW 6 mph /  9.7 km/h 11 mph /  17.7 km/h 83 % 0 in /  0.0 mm
20:17 40.8 °F /  4.9 °C 35.8 °F /  2.1 °C 29.7 in /  1005.6 hPa SSW 5 mph /  8.0 km/h 11 mph /  17.7 km/h 82 % 0 in /  0.0 mm
20:22 41.2 °F /  5.1 °C 35.8 °F /  2.1 °C 29.7 in /  1006.0 hPa SSW 3 mph /  4.8 km/h 11 mph /  17.7 km/h 81 % 0 in /  0.0 mm
20:32 41 °F /  5.0 °C 35.6 °F /  2.0 °C 29.7 in /  1006.0 hPa WSW 3 mph /  4.8 km/h 11 mph /  17.7 km/h 81 % 0 in /  0.0 mm
20:42 39.7 °F /  4.3 °C 35.2 °F /  1.8 °C 29.7 in /  1006.3 hPa SW 5 mph /  8.0 km/h 11 mph /  17.7 km/h 84 % 0 in /  0.0 mm
20:47 39.6 °F /  4.2 °C 35.4 °F /  1.9 °C 29.7 in /  1006.3 hPa SW 2 mph /  3.2 km/h 8 mph /  12.9 km/h 85 % 0 in /  0.0 mm
20:52 40.1 °F /  4.5 °C 35.6 °F /  2.0 °C 29.7 in /  1006.7 hPa SSW 4 mph /  6.4 km/h 8 mph /  12.9 km/h 84 % 0 in /  0.0 mm
20:57 40.5 °F /  4.7 °C 35.8 °F /  2.1 °C 29.7 in /  1006.7 hPa WSW 7 mph /  11.3 km/h 8 mph /  12.9 km/h 83 % 0 in /  0.0 mm
21:02 40.6 °F /  4.8 °C 36 °F /  2.2 °C 29.7 in /  1006.7 hPa SW 5 mph /  8.0 km/h 12 mph /  19.3 km/h 83 % 0 in /  0.0 mm
21:12 41 °F /  5.0 °C 35.6 °F /  2.0 °C 29.7 in /  1006.7 hPa South 7 mph /  11.3 km/h 12 mph /  19.3 km/h 81 % 0 in /  0.0 mm
21:17 41.2 °F /  5.1 °C 35.4 °F /  1.9 °C 29.7 in /  1006.7 hPa SW 12 mph /  19.3 km/h 15 mph /  24.1 km/h 80 % 0 in /  0.0 mm
21:22 41.2 °F /  5.1 °C 35.4 °F /  1.9 °C 29.7 in /  1006.7 hPa SW 7 mph /  11.3 km/h 15 mph /  24.1 km/h 80 % 0 in /  0.0 mm
21:32 41.4 °F /  5.2 °C 36 °F /  2.2 °C 29.7 in /  1007.0 hPa SW 8 mph /  12.9 km/h 15 mph /  24.1 km/h 81 % 0 in /  0.0 mm
21:42 41.5 °F /  5.3 °C 36.1 °F /  2.3 °C 29.7 in /  1007.0 hPa WSW 5 mph /  8.0 km/h 14 mph /  22.5 km/h 81 % 0 in /  0.0 mm
21:52 41.7 °F /  5.4 °C 36.3 °F /  2.4 °C 29.7 in /  1007.0 hPa SW 8 mph /  12.9 km/h 19 mph /  30.6 km/h 81 % 0 in /  0.0 mm
21:57 41.7 °F /  5.4 °C 36.3 °F /  2.4 °C 29.7 in /  1007.0 hPa WSW 12 mph /  19.3 km/h 19 mph /  30.6 km/h 81 % 0 in /  0.0 mm
22:02 42.1 °F /  5.6 °C 36.3 °F /  2.4 °C 29.7 in /  1007.0 hPa SW 15 mph /  24.1 km/h 17 mph /  27.4 km/h 80 % 0 in /  0.0 mm
22:12 42.3 °F /  5.7 °C 36.1 °F /  2.3 °C 29.7 in /  1007.0 hPa WSW 13 mph /  20.9 km/h 20 mph /  32.2 km/h 79 % 0 in /  0.0 mm
22:17 42.3 °F /  5.7 °C 36.1 °F /  2.3 °C 29.7 in /  1007.0 hPa SW 14 mph /  22.5 km/h 20 mph /  32.2 km/h 79 % 0 in /  0.0 mm
22:22 42.3 °F /  5.7 °C 36.1 °F /  2.3 °C 29.7 in /  1007.0 hPa SW 16 mph /  25.7 km/h 19 mph /  30.6 km/h 79 % 0 in /  0.0 mm
22:32 42.4 °F /  5.8 °C 36.3 °F /  2.4 °C 29.7 in /  1007.3 hPa West 18 mph /  29.0 km/h 19 mph /  30.6 km/h 79 % 0 in /  0.0 mm
22:42 42.4 °F /  5.8 °C 36.3 °F /  2.4 °C 29.7 in /  1007.3 hPa SW 11 mph /  17.7 km/h 20 mph /  32.2 km/h 79 % 0 in /  0.0 mm
22:47 42.4 °F /  5.8 °C 36.3 °F /  2.4 °C 29.7 in /  1007.3 hPa WSW 8 mph /  12.9 km/h 23 mph /  37.0 km/h 79 % 0 in /  0.0 mm
22:52 42.4 °F /  5.8 °C 36.7 °F /  2.6 °C 29.7 in /  1007.3 hPa SW 5 mph /  8.0 km/h 23 mph /  37.0 km/h 80 % 0 in /  0.0 mm
23:02 42.3 °F /  5.7 °C 36.9 °F /  2.7 °C 29.7 in /  1007.0 hPa West 8 mph /  12.9 km/h 21 mph /  33.8 km/h 81 % 0 in /  0.0 mm
23:12 42.3 °F /  5.7 °C 37.2 °F /  2.9 °C 29.7 in /  1007.0 hPa SW 10 mph /  16.1 km/h 21 mph /  33.8 km/h 82 % 0 in /  0.0 mm
23:17 42.3 °F /  5.7 °C 37.2 °F /  2.9 °C 29.7 in /  1007.0 hPa WSW 10 mph /  16.1 km/h 19 mph /  30.6 km/h 82 % 0 in /  0.0 mm
23:22 42.3 °F /  5.7 °C 37.4 °F /  3.0 °C 29.7 in /  1007.0 hPa WSW 7 mph /  11.3 km/h 17 mph /  27.4 km/h 83 % 0 in /  0.0 mm
23:32 42.1 °F /  5.6 °C 37.9 °F /  3.3 °C 29.7 in /  1007.3 hPa SW 6 mph /  9.7 km/h 17 mph /  27.4 km/h 85 % 0 in /  0.0 mm
23:42 42.1 °F /  5.6 °C 38.5 °F /  3.6 °C 29.7 in /  1007.3 hPa SSW 16 mph /  25.7 km/h 21 mph /  33.8 km/h 87 % 0 in /  0.0 mm
23:47 42.1 °F /  5.6 °C 38.5 °F /  3.6 °C 29.7 in /  1007.3 hPa SW 12 mph /  19.3 km/h 21 mph /  33.8 km/h 87 % 0.01 in /  0.3 mm
23:52 42.3 °F /  5.7 °C 38.3 °F /  3.5 °C 29.7 in /  1007.3 hPa SW 13 mph /  20.9 km/h 21 mph /  33.8 km/h 86 % 0.01 in /  0.3 mm
23:57 42.4 °F /  5.8 °C 38.5 °F /  3.6 °C 29.7 in /  1007.3 hPa SW 18 mph /  29.0 km/h 23 mph /  37.0 km/h 86 % 0.01 in /  0.3 mm
Meteo18
Compliments of Weather Underground - 4 mb

Script developed by  Jim McMurry - jmcmurry@mwt.net Adapted for the template by  Wim van der Kuil - Leuven-Template.eu

You find our weather info also at:

European Weather Network

Weather Underground

Equipment we use:

Weather-station
Davis Vue

Weather-program
Meteohub

Weather-server
Raspberry PI 2 B+

Provider
1 and 1

Davis Vue

Meteohub

Raspberry PI 2 B+

1 and 1